Time;durP1;ratioP1;P1;durP2;ratioP2;P2;SDS_P1;SDS_P2;PMS_P1;PMS_P2;Temp;Humidity;BMP_temperature;BMP_pressure;BME280_temperature;BME280_humidity;BME280_pressure;Samples;Min_cycle;Max_cycle;Signal;HPM_P1;HPM_P2
2021/08/25 00:02:09;;;;;;;2.70;1.70;;;20.70;60.50;;;;;;4884010;29;20039;-84
2021/08/25 00:04:39;;;;;;;2.58;1.40;;;20.70;59.90;;;;;;4881501;29;20033;-84
2021/08/25 00:07:08;;;;;;;2.72;1.70;;;20.60;59.90;;;;;;4881147;29;20044;-84
2021/08/25 00:09:35;;;;;;;3.35;1.67;;;20.60;59.90;;;;;;4892415;29;20024;-84
2021/08/25 00:12:00;;;;;;;2.78;1.83;;;20.60;59.90;;;;;;4899576;29;20033;-84
2021/08/25 00:14:27;;;;;;;3.05;1.98;;;20.50;59.90;;;;;;4916178;29;20047;-84
2021/08/25 00:16:53;;;;;;;2.70;1.60;;;20.50;60.00;;;;;;4899259;29;20489;-84
2021/08/25 00:19:19;;;;;;;3.28;1.90;;;20.50;60.00;;;;;;4914800;29;20111;-85
2021/08/25 00:21:45;;;;;;;2.65;1.67;;;20.40;59.90;;;;;;4915210;29;20036;-84
2021/08/25 00:24:11;;;;;;;3.42;2.05;;;20.40;60.00;;;;;;4914702;29;20036;-84
2021/08/25 00:26:36;;;;;;;3.63;1.90;;;20.40;60.00;;;;;;4883740;29;20058;-85
2021/08/25 00:29:02;;;;;;;3.70;1.80;;;20.30;60.00;;;;;;4881598;29;20104;-84
2021/08/25 00:31:28;;;;;;;2.92;1.77;;;20.30;60.00;;;;;;4908941;29;20036;-84
2021/08/25 00:33:53;;;;;;;3.95;2.10;;;20.30;60.00;;;;;;4903240;29;20063;-84
2021/08/25 00:36:19;;;;;;;3.67;2.00;;;20.30;60.10;;;;;;4899430;29;20486;-84
2021/08/25 00:38:45;;;;;;;2.97;1.70;;;20.20;60.00;;;;;;4918530;29;20055;-84
2021/08/25 00:41:11;;;;;;;3.33;1.95;;;20.20;60.10;;;;;;4918104;29;20111;-84
2021/08/25 00:43:36;;;;;;;3.05;1.88;;;20.20;60.10;;;;;;4918328;29;20032;-84
2021/08/25 00:46:03;;;;;;;4.18;2.20;;;20.20;60.20;;;;;;4886910;29;20389;-84
2021/08/25 00:48:29;;;;;;;3.60;1.98;;;20.10;60.20;;;;;;4899583;29;20105;-84
2021/08/25 00:50:56;;;;;;;3.25;1.80;;;20.10;60.20;;;;;;4895343;29;20131;-84
2021/08/25 00:53:24;;;;;;;3.05;1.85;;;20.10;60.20;;;;;;4918538;29;20056;-84
2021/08/25 00:55:55;;;;;;;2.95;1.88;;;20.00;60.20;;;;;;4918122;29;20111;-84
2021/08/25 00:58:21;;;;;;;2.88;1.90;;;20.00;60.30;;;;;;4902741;29;20044;-84
2021/08/25 01:01:02;;;;;;;4.07;2.33;;;20.00;60.30;;;;;;4900977;29;20063;-84
2021/08/25 01:03:39;;;;;;;3.97;2.10;;;19.90;60.30;;;;;;4918422;29;20538;-84
2021/08/25 01:06:06;;;;;;;3.30;1.77;;;19.90;60.30;;;;;;4895189;29;20024;-84
2021/08/25 01:08:32;;;;;;;2.70;1.77;;;19.90;60.40;;;;;;4918216;29;20024;-84
2021/08/25 01:11:06;;;;;;;2.63;2.00;;;19.80;60.40;;;;;;4902877;29;20076;-84
2021/08/25 01:13:32;;;;;;;3.17;1.90;;;19.80;60.40;;;;;;4919526;29;20032;-84
2021/08/25 01:15:57;;;;;;;3.53;2.08;;;19.80;60.40;;;;;;4919024;29;20281;-83
2021/08/25 01:18:23;;;;;;;3.70;2.00;;;19.80;61.20;;;;;;4899303;29;20422;-84
2021/08/25 01:20:50;;;;;;;3.55;1.90;;;19.70;60.40;;;;;;4915566;29;20033;-84
2021/08/25 01:23:19;;;;;;;3.53;2.08;;;19.70;60.50;;;;;;4919264;29;20024;-84
2021/08/25 01:25:45;;;;;;;3.85;2.17;;;19.70;60.60;;;;;;4917985;29;20087;-84
2021/08/25 01:28:17;;;;;;;3.67;2.20;;;19.60;60.60;;;;;;4917795;29;20136;-82
2021/08/25 01:30:45;;;;;;;3.22;2.00;;;19.60;60.60;;;;;;4902241;29;20031;-84
2021/08/25 01:33:37;;;;;;;3.25;1.92;;;19.60;60.60;;;;;;4886780;29;20040;-84
2021/08/25 01:36:03;;;;;;;3.60;2.00;;;19.50;60.70;;;;;;4915556;29;20044;-84
2021/08/25 01:38:34;;;;;;;3.65;2.00;;;19.50;60.60;;;;;;4870577;29;20056;-84
2021/08/25 01:41:02;;;;;;;2.63;1.80;;;19.50;60.70;;;;;;4918119;29;20071;-84
2021/08/25 01:43:28;;;;;;;3.80;2.13;;;19.50;60.70;;;;;;4901954;29;20040;-84
2021/08/25 01:45:54;;;;;;;4.05;2.45;;;19.40;60.70;;;;;;4902188;29;20088;-84
2021/08/25 01:48:19;;;;;;;4.30;2.33;;;19.40;60.80;;;;;;4917307;29;20060;-84
2021/08/25 01:50:45;;;;;;;4.35;2.53;;;19.40;60.80;;;;;;4898197;29;20028;-84
2021/08/25 01:53:16;;;;;;;4.68;2.28;;;19.30;60.80;;;;;;4901730;29;20063;-84
2021/08/25 01:55:42;;;;;;;3.85;2.17;;;19.40;60.90;;;;;;4898670;29;20036;-84
2021/08/25 01:58:08;;;;;;;3.45;2.15;;;19.30;60.80;;;;;;4915814;29;20115;-84
2021/08/25 02:00:34;;;;;;;3.38;2.00;;;19.30;60.90;;;;;;4901644;29;20172;-84
2021/08/25 02:02:59;;;;;;;3.95;2.08;;;19.30;60.90;;;;;;4917548;29;20028;-84
2021/08/25 02:05:25;;;;;;;3.95;2.10;;;19.20;60.90;;;;;;4918369;29;20040;-83
2021/08/25 02:07:51;;;;;;;4.55;2.35;;;19.20;60.90;;;;;;4898737;29;20044;-84
2021/08/25 02:10:17;;;;;;;3.63;2.00;;;19.20;61.00;;;;;;4868462;29;20078;-84
2021/08/25 02:12:42;;;;;;;3.65;2.28;;;19.20;61.00;;;;;;4917365;29;20024;-85
2021/08/25 02:15:09;;;;;;;3.88;2.10;;;19.10;61.00;;;;;;4901382;29;20036;-84
2021/08/25 02:17:35;;;;;;;3.78;2.08;;;19.10;61.10;;;;;;4916845;29;20469;-84
2021/08/25 02:20:01;;;;;;;4.68;2.25;;;19.10;61.10;;;;;;4901454;29;20088;-84
2021/08/25 02:22:28;;;;;;;4.03;2.30;;;19.10;61.20;;;;;;4885533;29;20507;-84
2021/08/25 02:24:54;;;;;;;3.83;2.40;;;19.00;61.20;;;;;;4917799;29;20052;-84
2021/08/25 02:27:19;;;;;;;3.53;2.17;;;19.00;61.20;;;;;;4869356;29;20123;-86
2021/08/25 02:29:45;;;;;;;3.80;2.13;;;19.00;61.20;;;;;;4897400;29;20059;-84
2021/08/25 02:32:11;;;;;;;3.70;1.88;;;18.90;61.20;;;;;;4913137;29;20119;-84
2021/08/25 02:34:36;;;;;;;2.33;1.67;;;18.90;61.30;;;;;;4901085;29;20421;-84
2021/08/25 02:37:02;;;;;;;4.10;2.08;;;18.90;61.40;;;;;;4870059;29;20040;-85
2021/08/25 02:39:28;;;;;;;3.42;2.10;;;18.90;61.40;;;;;;4900848;29;20068;-84
2021/08/25 02:41:54;;;;;;;3.30;2.05;;;18.90;61.50;;;;;;4901066;29;20598;-85
2021/08/25 02:44:20;;;;;;;3.35;2.30;;;18.90;61.50;;;;;;4885118;29;20028;-84
2021/08/25 02:46:46;;;;;;;3.53;2.17;;;18.80;61.50;;;;;;4900603;29;20494;-84
2021/08/25 02:49:11;;;;;;;3.38;2.42;;;18.80;61.50;;;;;;4900550;29;20114;-84
2021/08/25 02:51:37;;;;;;;3.58;2.03;;;18.80;61.60;;;;;;4899585;29;20036;-84
2021/08/25 02:54:03;;;;;;;3.40;2.30;;;18.70;61.50;;;;;;4915670;29;20035;-84
2021/08/25 02:56:28;;;;;;;3.45;2.00;;;18.70;61.60;;;;;;4915967;29;20100;-84
2021/08/25 02:58:54;;;;;;;3.17;1.90;;;18.70;61.60;;;;;;4868938;29;20032;-84
2021/08/25 03:01:20;;;;;;;3.00;1.92;;;18.70;61.60;;;;;;4900117;29;20111;-84
2021/08/25 03:03:47;;;;;;;3.53;2.15;;;18.70;61.80;;;;;;4915968;29;20036;-84
2021/08/25 03:06:13;;;;;;;2.47;1.90;;;18.60;61.70;;;;;;4900407;29;20362;-84
2021/08/25 03:08:38;;;;;;;3.00;2.15;;;18.60;61.70;;;;;;4897223;29;20032;-84
2021/08/25 03:11:04;;;;;;;3.38;2.13;;;18.60;61.70;;;;;;4892937;29;20039;-84
2021/08/25 03:13:30;;;;;;;3.28;2.00;;;18.60;61.80;;;;;;4915852;29;20036;-84
2021/08/25 03:15:56;;;;;;;2.83;1.92;;;18.50;61.80;;;;;;4900182;29;20131;-84
2021/08/25 03:18:21;;;;;;;2.15;1.70;;;18.50;61.80;;;;;;4915420;29;20123;-84
2021/08/25 03:20:47;;;;;;;3.22;2.03;;;18.50;61.90;;;;;;4881972;29;20040;-84
2021/08/25 03:23:13;;;;;;;2.90;1.92;;;18.50;61.90;;;;;;4916866;29;20028;-89
2021/08/25 03:25:38;;;;;;;4.18;2.38;;;18.40;61.90;;;;;;4899508;29;20449;-83
2021/08/25 03:28:04;;;;;;;3.13;1.92;;;18.40;62.00;;;;;;4898683;29;20043;-84
2021/08/25 03:30:30;;;;;;;3.30;2.08;;;18.40;62.00;;;;;;4899039;29;20501;-83
2021/08/25 03:32:56;;;;;;;4.35;2.50;;;18.40;62.00;;;;;;4915086;29;20413;-84
2021/08/25 03:35:21;;;;;;;4.07;2.05;;;18.40;62.00;;;;;;4899858;29;20032;-84
2021/08/25 03:37:47;;;;;;;4.05;2.22;;;18.30;62.00;;;;;;4888779;29;20450;-84
2021/08/25 03:40:13;;;;;;;2.83;1.85;;;18.30;62.00;;;;;;4899762;29;20111;-83
2021/08/25 03:42:39;;;;;;;3.17;2.10;;;18.30;62.10;;;;;;4915842;29;20039;-83
2021/08/25 03:45:06;;;;;;;3.50;2.05;;;18.30;62.10;;;;;;4916783;29;20024;-84
2021/08/25 03:47:31;;;;;;;3.40;2.13;;;18.20;62.10;;;;;;4916036;29;20485;-84
2021/08/25 03:49:58;;;;;;;3.65;2.20;;;18.20;62.10;;;;;;4915116;29;20043;-85
2021/08/25 03:52:24;;;;;;;3.95;2.13;;;18.20;62.20;;;;;;4899615;29;20035;-84
2021/08/25 03:54:50;;;;;;;4.45;2.40;;;18.20;62.20;;;;;;4915415;29;20074;-83
2021/08/25 03:57:16;;;;;;;3.80;2.42;;;18.20;62.20;;;;;;4896090;29;20064;-86
2021/08/25 03:59:42;;;;;;;3.47;2.10;;;18.10;62.20;;;;;;4899743;29;20617;-84
2021/08/25 04:02:08;;;;;;;2.90;2.00;;;18.10;62.30;;;;;;4900003;29;20483;-84
2021/08/25 04:04:34;;;;;;;3.05;2.08;;;18.10;62.30;;;;;;4901639;29;20093;-83
2021/08/25 04:07:00;;;;;;;2.80;1.98;;;18.10;62.30;;;;;;4903915;29;20032;-86
2021/08/25 04:09:25;;;;;;;4.07;2.20;;;18.10;62.40;;;;;;4887208;29;20036;-84
2021/08/25 04:11:51;;;;;;;3.00;1.90;;;18.10;62.40;;;;;;4919311;29;20036;-84
2021/08/25 04:14:17;;;;;;;3.03;1.92;;;18.00;62.40;;;;;;4919180;29;20032;-84
2021/08/25 04:16:43;;;;;;;4.45;2.63;;;18.00;62.40;;;;;;4919118;29;20036;-84
2021/08/25 04:19:08;;;;;;;4.47;2.30;;;18.00;62.60;;;;;;4885034;29;20037;-84
2021/08/25 04:21:34;;;;;;;3.25;1.98;;;17.90;62.40;;;;;;4902998;29;20044;-83
2021/08/25 04:24:00;;;;;;;3.20;2.10;;;17.90;62.40;;;;;;4903134;29;20378;-84
2021/08/25 04:26:25;;;;;;;3.78;2.00;;;17.90;62.50;;;;;;4918356;29;20064;-84
2021/08/25 04:28:51;;;;;;;4.15;2.17;;;17.90;62.60;;;;;;4891444;29;20474;-83
2021/08/25 04:31:17;;;;;;;3.92;2.00;;;17.90;62.60;;;;;;4896647;29;20036;-85
2021/08/25 04:33:43;;;;;;;3.63;2.13;;;17.90;62.60;;;;;;4902431;29;20028;-84
2021/08/25 04:36:09;;;;;;;3.25;2.00;;;17.80;62.60;;;;;;4902776;29;20043;-84
2021/08/25 04:38:34;;;;;;;3.08;1.77;;;17.80;62.60;;;;;;4919388;29;20075;-84
2021/08/25 04:41:00;;;;;;;3.47;2.30;;;17.80;62.70;;;;;;4871932;29;20434;-83
2021/08/25 04:43:27;;;;;;;4.53;2.17;;;17.80;62.70;;;;;;4899945;29;20040;-84
2021/08/25 04:45:53;;;;;;;4.30;2.20;;;17.80;62.70;;;;;;4902866;29;20036;-84
2021/08/25 04:48:19;;;;;;;3.80;2.30;;;17.70;62.80;;;;;;4903262;29;20539;-84
2021/08/25 04:50:44;;;;;;;2.85;1.85;;;17.70;62.70;;;;;;4918302;29;20079;-84
2021/08/25 04:53:10;;;;;;;3.35;2.05;;;17.70;62.80;;;;;;4899777;29;20466;-83
2021/08/25 04:55:37;;;;;;;2.67;1.98;;;17.70;62.80;;;;;;4901924;29;20036;-84
2021/08/25 04:58:03;;;;;;;3.03;1.90;;;17.70;62.80;;;;;;4902347;29;20036;-84
2021/08/25 05:00:29;;;;;;;3.35;2.10;;;17.60;62.80;;;;;;4919276;29;20087;-84
2021/08/25 05:02:55;;;;;;;3.65;1.92;;;17.60;62.90;;;;;;4917998;29;20087;-84
2021/08/25 05:05:21;;;;;;;4.15;2.30;;;17.60;62.90;;;;;;4918607;29;20036;-83
2021/08/25 05:07:47;;;;;;;3.92;2.40;;;17.60;62.90;;;;;;4900997;29;20044;-84
2021/08/25 05:10:13;;;;;;;3.88;2.22;;;17.60;63.00;;;;;;4919215;29;20679;-84
2021/08/25 05:12:39;;;;;;;3.67;2.28;;;17.60;63.00;;;;;;4918155;29;20043;-86
2021/08/25 05:15:08;;;;;;;3.35;1.95;;;17.50;63.00;;;;;;4899491;29;20029;-82
2021/08/25 05:17:34;;;;;;;3.70;2.30;;;17.50;63.10;;;;;;4902775;29;20035;-84
2021/08/25 05:20:04;;;;;;;3.33;2.28;;;17.50;63.10;;;;;;4902348;29;20046;-84
2021/08/25 05:22:30;;;;;;;3.70;2.20;;;17.50;63.20;;;;;;4903013;29;20035;-84
2021/08/25 05:24:55;;;;;;;4.10;2.47;;;17.50;63.10;;;;;;4899057;29;20041;-84
2021/08/25 05:27:21;;;;;;;3.08;2.00;;;17.50;63.10;;;;;;4896392;29;20040;-84
2021/08/25 05:29:47;;;;;;;3.72;2.08;;;17.50;63.20;;;;;;4898769;29;20067;-83
2021/08/25 05:32:13;;;;;;;3.05;2.05;;;17.50;62.80;;;;;;4898810;29;20036;-83
2021/08/25 05:34:38;;;;;;;4.05;2.13;;;17.40;63.20;;;;;;4897871;29;20052;-83
2021/08/25 05:37:04;;;;;;;3.35;2.03;;;17.40;63.20;;;;;;4900528;29;20079;-84
2021/08/25 05:39:30;;;;;;;4.10;2.35;;;17.40;63.30;;;;;;4902520;29;20039;-84
2021/08/25 05:41:56;;;;;;;3.88;2.13;;;17.40;63.30;;;;;;4886594;29;20039;-84
2021/08/25 05:44:21;;;;;;;2.80;1.85;;;17.40;63.40;;;;;;4918039;29;20075;-84
2021/08/25 05:46:47;;;;;;;3.83;2.53;;;17.40;63.40;;;;;;4916835;29;20115;-84
2021/08/25 05:49:13;;;;;;;3.78;2.00;;;17.40;63.50;;;;;;4900832;29;20028;-84
2021/08/25 05:51:39;;;;;;;4.03;2.40;;;17.40;63.50;;;;;;4917198;29;20028;-83
2021/08/25 05:54:05;;;;;;;3.63;2.47;;;17.30;63.50;;;;;;4917155;29;20030;-84
2021/08/25 05:56:31;;;;;;;2.95;1.83;;;17.30;63.50;;;;;;4882971;29;20045;-86
2021/08/25 05:58:56;;;;;;;2.95;1.88;;;17.30;63.60;;;;;;4894854;29;20549;-83
2021/08/25 06:01:24;;;;;;;3.63;2.10;;;17.30;63.60;;;;;;4916833;29;20148;-85
2021/08/25 06:03:50;;;;;;;3.45;2.10;;;17.30;63.60;;;;;;4898534;29;20029;-84
2021/08/25 06:06:16;;;;;;;2.58;1.77;;;17.30;63.60;;;;;;4884459;29;20037;-83
2021/08/25 06:08:42;;;;;;;2.78;1.90;;;17.30;63.60;;;;;;4916976;29;20032;-83
2021/08/25 06:11:08;;;;;;;3.10;2.17;;;17.30;63.70;;;;;;4917016;29;20119;-83
2021/08/25 06:13:34;;;;;;;4.47;2.55;;;17.30;63.80;;;;;;4893795;29;20060;-83
2021/08/25 06:16:00;;;;;;;4.00;2.20;;;17.30;63.80;;;;;;4917328;29;20039;-84
2021/08/25 06:18:26;;;;;;;3.65;2.22;;;17.30;63.80;;;;;;4901052;29;20375;-83
2021/08/25 06:20:52;;;;;;;3.35;2.30;;;17.30;63.80;;;;;;4916901;29;20489;-83
2021/08/25 06:23:18;;;;;;;4.05;2.30;;;17.30;63.80;;;;;;4901240;29;20063;-83
2021/08/25 06:25:43;;;;;;;3.22;2.22;;;17.30;63.80;;;;;;4897659;29;20087;-83
2021/08/25 06:28:10;;;;;;;3.60;2.00;;;17.30;63.90;;;;;;4881600;29;20032;-83
2021/08/25 06:30:36;;;;;;;3.55;2.28;;;17.30;63.90;;;;;;4916215;29;20036;-83
2021/08/25 06:33:02;;;;;;;3.42;2.35;;;17.30;63.90;;;;;;4885612;29;20042;-86
2021/08/25 06:35:28;;;;;;;3.55;2.28;;;17.30;64.00;;;;;;4899456;29;20036;-83
2021/08/25 06:37:53;;;;;;;3.38;2.15;;;17.30;64.00;;;;;;4916633;29;20469;-83
2021/08/25 06:40:20;;;;;;;3.58;2.25;;;17.30;64.00;;;;;;4917942;29;20540;-84
2021/08/25 06:42:46;;;;;;;3.35;2.15;;;17.30;64.10;;;;;;4917809;29;20036;-83
2021/08/25 06:45:12;;;;;;;3.55;2.20;;;17.30;64.10;;;;;;4869817;29;20032;-83
2021/08/25 06:47:38;;;;;;;4.18;2.35;;;17.30;64.10;;;;;;4915805;29;20503;-86
2021/08/25 06:50:05;;;;;;;3.22;2.00;;;17.30;64.20;;;;;;4916831;29;20040;-83
2021/08/25 06:52:31;;;;;;;4.00;2.20;;;17.30;64.10;;;;;;4900720;29;20470;-84
2021/08/25 06:54:57;;;;;;;3.00;1.90;;;17.30;64.10;;;;;;4900340;29;20024;-83
2021/08/25 06:57:23;;;;;;;4.15;2.20;;;17.30;64.10;;;;;;4916019;29;20040;-84
2021/08/25 06:59:48;;;;;;;3.53;2.30;;;17.30;64.20;;;;;;4915220;29;20584;-84
2021/08/25 07:02:14;;;;;;;3.45;2.33;;;17.30;64.20;;;;;;4897270;29;20033;-83
2021/08/25 07:04:45;;;;;;;4.40;2.28;;;17.30;64.20;;;;;;4899311;29;20040;-84
2021/08/25 07:07:12;;;;;;;3.45;2.20;;;17.30;64.20;;;;;;4915695;29;20481;-84
2021/08/25 07:09:38;;;;;;;4.25;2.38;;;17.30;64.30;;;;;;4915435;29;20040;-87
2021/08/25 07:12:04;;;;;;;3.08;1.90;;;17.30;64.30;;;;;;4892543;29;20028;-83
2021/08/25 07:14:29;;;;;;;3.65;2.35;;;17.40;64.30;;;;;;4915799;29;20425;-83
2021/08/25 07:16:55;;;;;;;3.13;2.13;;;17.40;64.30;;;;;;4899405;29;20044;-84
2021/08/25 07:19:21;;;;;;;4.05;2.20;;;17.40;64.30;;;;;;4884305;29;20036;-85
2021/08/25 07:21:46;;;;;;;3.78;2.25;;;17.40;64.40;;;;;;4899705;29;20375;-84
2021/08/25 07:24:13;;;;;;;3.58;2.20;;;17.40;64.30;;;;;;4900197;29;20032;-84
2021/08/25 07:26:39;;;;;;;4.13;2.40;;;17.40;64.30;;;;;;4884151;29;20052;-87
2021/08/25 07:29:05;;;;;;;3.55;2.10;;;17.40;64.30;;;;;;4899134;29;20040;-84
2021/08/25 07:31:30;;;;;;;4.65;2.50;;;17.40;64.40;;;;;;4899366;29;20025;-84
2021/08/25 07:33:56;;;;;;;3.75;2.17;;;17.40;64.30;;;;;;4875853;29;20028;-84
2021/08/25 07:36:22;;;;;;;3.50;2.33;;;17.50;64.40;;;;;;4899420;29;20120;-84
2021/08/25 07:38:48;;;;;;;3.78;2.40;;;17.50;64.40;;;;;;4899210;29;20036;-83
2021/08/25 07:41:13;;;;;;;4.47;2.65;;;17.50;64.50;;;;;;4915430;29;20123;-83
2021/08/25 07:43:39;;;;;;;3.55;2.33;;;17.50;64.50;;;;;;4899757;29;20393;-83
2021/08/25 07:46:05;;;;;;;4.20;2.58;;;17.50;64.50;;;;;;4915908;29;20504;-83
2021/08/25 07:48:31;;;;;;;3.22;2.15;;;17.60;64.50;;;;;;4896501;29;20025;-83
2021/08/25 07:50:57;;;;;;;4.25;2.45;;;17.60;64.50;;;;;;4899241;29;20042;-84
2021/08/25 07:53:23;;;;;;;2.78;2.00;;;17.60;64.50;;;;;;4916642;29;20111;-84
2021/08/25 07:55:49;;;;;;;3.58;2.20;;;17.60;64.50;;;;;;4896925;29;20029;-83
2021/08/25 07:58:14;;;;;;;4.22;2.53;;;17.60;64.50;;;;;;4899032;29;20397;-84
2021/08/25 08:00:41;;;;;;;5.40;2.70;;;17.70;64.60;;;;;;4915879;29;20489;-84
2021/08/25 08:03:07;;;;;;;4.25;2.83;;;17.70;64.60;;;;;;4915277;29;20047;-86
2021/08/25 08:05:33;;;;;;;4.10;2.42;;;17.70;64.60;;;;;;4896346;29;20044;-83
2021/08/25 08:07:59;;;;;;;3.53;2.20;;;17.70;64.60;;;;;;4911631;29;20044;-83
2021/08/25 08:10:25;;;;;;;3.22;2.22;;;17.70;64.60;;;;;;4896660;29;20496;-83
2021/08/25 08:12:52;;;;;;;4.10;2.25;;;17.80;65.30;;;;;;4896057;29;20032;-83
2021/08/25 08:15:18;;;;;;;4.35;2.45;;;17.80;64.60;;;;;;4882914;29;20409;-83
2021/08/25 08:17:45;;;;;;;4.03;2.13;;;17.90;64.60;;;;;;4915601;29;20040;-84
2021/08/25 08:20:15;;;;;;;4.35;2.60;;;17.90;64.70;;;;;;4896947;29;20044;-84
2021/08/25 08:22:42;;;;;;;4.72;2.78;;;17.90;64.60;;;;;;4915746;29;20024;-84
2021/08/25 08:25:08;;;;;;;3.40;2.25;;;17.90;64.60;;;;;;4883842;29;20473;-84
2021/08/25 08:27:34;;;;;;;4.15;2.53;;;18.00;64.60;;;;;;4915382;29;20092;-84
2021/08/25 08:30:04;;;;;;;3.85;2.38;;;18.00;64.60;;;;;;4915083;29;20036;-84
2021/08/25 08:32:29;;;;;;;4.07;2.58;;;18.10;64.60;;;;;;4915303;29;20032;-85
2021/08/25 08:34:55;;;;;;;3.72;2.30;;;18.10;64.50;;;;;;4915368;29;20033;-85
2021/08/25 08:37:21;;;;;;;3.65;2.28;;;18.20;64.50;;;;;;4868855;29;20092;-83
2021/08/25 08:39:47;;;;;;;4.85;2.63;;;18.20;64.40;;;;;;4915589;29;20040;-85
2021/08/25 08:42:35;;;;;;;4.55;2.45;;;18.30;64.40;;;;;;4896679;29;20465;-83
2021/08/25 08:45:04;;;;;;;3.95;2.20;;;18.30;64.40;;;;;;4893213;29;20384;-83
2021/08/25 08:47:30;;;;;;;3.55;2.10;;;18.40;64.20;;;;;;4899549;29;20092;-83
2021/08/25 08:50:00;;;;;;;4.45;2.30;;;18.40;64.10;;;;;;4915382;29;20043;-84
2021/08/25 08:52:27;;;;;;;3.17;2.05;;;18.50;64.10;;;;;;4919486;29;20028;-84
2021/08/25 08:54:54;;;;;;;3.25;2.10;;;18.60;64.00;;;;;;4902647;29;20080;-84
2021/08/25 08:57:21;;;;;;;4.35;2.42;;;18.60;63.90;;;;;;4918635;29;20469;-83
2021/08/25 08:59:47;;;;;;;3.03;1.95;;;18.70;63.80;;;;;;4902792;29;20119;-83
2021/08/25 09:02:34;;;;;;;3.45;2.05;;;18.80;63.80;;;;;;4894080;29;20056;-84
2021/08/25 09:05:06;;;;;;;3.53;2.20;;;18.90;63.70;;;;;;4910760;29;20511;-84
2021/08/25 09:07:32;;;;;;;3.92;2.30;;;19.00;63.60;;;;;;4902931;29;20042;-84
2021/08/25 09:09:58;;;;;;;4.93;1.95;;;19.00;63.50;;;;;;4899869;29;20036;-84
2021/08/25 09:12:25;;;;;;;3.53;2.05;;;19.10;63.50;;;;;;4918218;29;20013;-84
2021/08/25 09:14:51;;;;;;;3.53;2.13;;;19.20;63.40;;;;;;4902423;29;20056;-87
2021/08/25 09:17:30;;;;;;;4.13;2.08;;;19.20;63.40;;;;;;4918284;29;20096;-84
2021/08/25 09:20:09;;;;;;;3.15;1.83;;;19.40;63.40;;;;;;4919411;29;20039;-85
2021/08/25 09:22:35;;;;;;;2.22;1.60;;;19.50;63.40;;;;;;4899370;29;20072;-83
2021/08/25 09:25:02;;;;;;;3.55;1.98;;;19.50;63.20;;;;;;4917022;29;20056;-84
2021/08/25 09:27:27;;;;;;;3.30;1.88;;;19.60;63.20;;;;;;4902307;29;20039;-84
2021/08/25 09:29:57;;;;;;;2.92;1.80;;;19.70;63.90;;;;;;4918005;29;20032;-85
2021/08/25 09:32:28;;;;;;;2.90;1.73;;;19.80;63.20;;;;;;4918172;29;20066;-83
2021/08/25 09:34:55;;;;;;;3.42;1.83;;;19.90;63.30;;;;;;4919087;29;20029;-85
2021/08/25 09:37:22;;;;;;;2.50;1.63;;;20.00;63.30;;;;;;4902473;29;20465;-83
2021/08/25 09:39:50;;;;;;;3.20;1.92;;;20.10;63.20;;;;;;4918626;29;20051;-84
2021/08/25 09:42:19;;;;;;;2.95;1.80;;;20.20;63.20;;;;;;4909976;29;20060;-83
2021/08/25 09:44:46;;;;;;;3.22;1.92;;;20.30;63.20;;;;;;4917756;29;20051;-84
2021/08/25 09:47:12;;;;;;;2.80;1.80;;;20.40;63.20;;;;;;4885844;29;20405;-85
2021/08/25 09:49:38;;;;;;;2.38;1.48;;;20.50;63.20;;;;;;4898287;29;20714;-85
2021/08/25 09:52:06;;;;;;;2.97;1.63;;;20.60;63.20;;;;;;4901767;29;20032;-84
2021/08/25 09:54:32;;;;;;;2.72;1.60;;;20.70;63.30;;;;;;4886567;29;20032;-84
2021/08/25 09:56:58;;;;;;;2.00;1.60;;;20.80;63.20;;;;;;4917209;29;20135;-84
2021/08/25 09:59:24;;;;;;;2.47;1.55;;;20.90;63.20;;;;;;4900793;29;20486;-84
2021/08/25 10:01:52;;;;;;;2.42;1.50;;;21.00;63.20;;;;;;4901593;29;20028;-83
2021/08/25 10:04:18;;;;;;;2.33;1.55;;;21.10;63.20;;;;;;4903541;29;20536;-84
2021/08/25 10:06:49;;;;;;;2.47;1.50;;;21.20;63.20;;;;;;4917650;29;20370;-84
2021/08/25 10:09:16;;;;;;;2.65;1.75;;;21.30;63.20;;;;;;4900729;29;20509;-84
2021/08/25 10:11:51;;;;;;;2.40;1.63;;;21.40;63.20;;;;;;4917551;29;20028;-84
2021/08/25 10:14:18;;;;;;;2.72;1.58;;;21.50;63.30;;;;;;4904052;29;20045;-85
2021/08/25 10:16:49;;;;;;;2.38;1.50;;;21.60;63.20;;;;;;4901355;29;20043;-84
2021/08/25 10:19:36;;;;;;;1.75;1.40;;;21.70;63.50;;;;;;4901076;29;20036;-84
2021/08/25 10:22:24;;;;;;;2.25;1.60;;;21.80;63.50;;;;;;4918053;29;20028;-84
2021/08/25 10:25:05;;;;;;;2.42;1.50;;;21.90;63.30;;;;;;4901720;29;20057;-83
2021/08/25 10:27:33;;;;;;;2.10;1.25;;;22.10;63.30;;;;;;4917377;29;20489;-84
2021/08/25 10:30:04;;;;;;;2.30;1.50;;;22.20;63.20;;;;;;4917332;29;20051;-84
2021/08/25 10:32:35;;;;;;;1.75;1.42;;;22.20;63.30;;;;;;4901496;29;20040;-84
2021/08/25 10:35:13;;;;;;;2.30;1.48;;;22.30;63.20;;;;;;4901061;29;20032;-84
2021/08/25 10:37:40;;;;;;;1.58;1.30;;;22.40;63.20;;;;;;4918218;29;20024;-84
2021/08/25 10:40:07;;;;;;;2.28;1.40;;;22.50;63.10;;;;;;4916737;29;20509;-83
2021/08/25 10:42:50;;;;;;;2.33;1.70;;;22.60;63.00;;;;;;4916895;29;20500;-83
2021/08/25 10:45:37;;;;;;;2.70;1.73;;;22.70;63.00;;;;;;4917883;29;20036;-84
2021/08/25 10:48:03;;;;;;;2.60;1.50;;;22.80;62.80;;;;;;4911438;29;20488;-83
2021/08/25 10:50:50;;;;;;;3.03;1.42;;;22.90;63.00;;;;;;4900687;29;20039;-85
2021/08/25 10:53:28;;;;;;;4.35;1.85;;;23.00;63.50;;;;;;4900936;29;20473;-83
2021/08/25 10:56:23;;;;;;;2.42;1.50;;;23.10;63.60;;;;;;4909003;29;20059;-84
2021/08/25 10:58:51;;;;;;;2.75;1.63;;;23.20;63.80;;;;;;4893185;29;20103;-83
2021/08/25 11:01:21;;;;;;;2.53;1.60;;;23.30;63.60;;;;;;4916888;29;20043;-82
2021/08/25 11:03:49;;;;;;;2.65;1.70;;;23.30;63.70;;;;;;4915874;29;20056;-83
2021/08/25 11:06:31;;;;;;;2.58;1.58;;;23.50;63.80;;;;;;4884578;29;20040;-84
2021/08/25 11:09:16;;;;;;;3.22;1.75;;;23.50;64.20;;;;;;4912402;29;20043;-84
2021/08/25 11:11:53;;;;;;;1.83;1.40;;;23.60;64.10;;;;;;4913514;29;20028;-84
2021/08/25 11:14:20;;;;;;;2.75;1.83;;;23.60;64.10;;;;;;4915541;29;20578;-84
2021/08/25 11:16:46;;;;;;;2.83;1.55;;;23.70;64.30;;;;;;4916093;29;20042;-83
2021/08/25 11:19:30;;;;;;;2.90;1.60;;;23.80;64.40;;;;;;4915510;29;20152;-84
2021/08/25 11:21:57;;;;;;;2.28;1.55;;;23.80;64.40;;;;;;4916086;29;20107;-85
2021/08/25 11:24:31;;;;;;;3.17;1.83;;;23.90;64.70;;;;;;4896739;29;20507;-84
2021/08/25 11:26:57;;;;;;;2.42;1.45;;;23.90;64.70;;;;;;4914617;29;20517;-84
2021/08/25 11:29:23;;;;;;;2.20;1.60;;;24.00;64.80;;;;;;4884540;29;20064;-83
2021/08/25 11:31:50;;;;;;;2.95;1.95;;;24.00;64.70;;;;;;4900107;29;20032;-84
2021/08/25 11:34:19;;;;;;;2.67;1.80;;;24.00;64.90;;;;;;4896641;29;20040;-83
2021/08/25 11:36:57;;;;;;;2.38;1.67;;;24.10;65.20;;;;;;4913523;29;20040;-81
2021/08/25 11:39:24;;;;;;;3.17;1.73;;;24.10;65.40;;;;;;4909229;29;20528;-82
2021/08/25 11:41:50;;;;;;;2.78;1.58;;;24.20;65.40;;;;;;4899836;29;20111;-85
2021/08/25 11:44:37;;;;;;;2.60;1.45;;;24.20;65.60;;;;;;4912356;29;20037;-84
2021/08/25 11:47:15;;;;;;;3.17;1.92;;;24.20;66.00;;;;;;4915851;29;20032;-84
2021/08/25 11:49:43;;;;;;;4.28;1.90;;;24.20;66.20;;;;;;4915709;29;20031;-83
2021/08/25 11:52:09;;;;;;;3.42;1.95;;;24.30;66.20;;;;;;4899018;29;20510;-84
2021/08/25 11:54:50;;;;;;;4.18;2.00;;;24.30;66.10;;;;;;4884571;29;20069;-84
2021/08/25 11:57:17;;;;;;;3.20;1.85;;;24.40;66.10;;;;;;4918000;29;20044;-83
2021/08/25 12:00:00;;;;;;;2.70;1.88;;;24.40;66.20;;;;;;4895213;29;20035;-83
2021/08/25 12:02:26;;;;;;;3.05;1.85;;;24.40;66.30;;;;;;4881654;29;20124;-84
2021/08/25 12:04:52;;;;;;;2.95;1.98;;;24.50;66.10;;;;;;4899293;29;20135;-85
2021/08/25 12:07:19;;;;;;;2.92;2.05;;;24.50;66.20;;;;;;4898879;29;20451;-84
2021/08/25 12:09:45;;;;;;;3.33;1.95;;;24.50;66.00;;;;;;4899682;29;20042;-84
2021/08/25 12:12:11;;;;;;;3.45;2.22;;;24.50;66.00;;;;;;4915268;29;20110;-84
2021/08/25 12:14:54;;;;;;;3.25;2.00;;;24.60;66.00;;;;;;4884363;29;20040;-84
2021/08/25 12:17:21;;;;;;;2.83;1.90;;;24.50;66.00;;;;;;4898940;29;20095;-83
2021/08/25 12:19:54;;;;;;;3.15;2.15;;;24.60;65.70;;;;;;4901097;29;20036;-84
2021/08/25 12:22:26;;;;;;;3.53;2.28;;;24.60;65.40;;;;;;4899377;29;20064;-84
2021/08/25 12:24:53;;;;;;;3.25;1.77;;;24.60;65.00;;;;;;4915292;29;20035;-83
2021/08/25 12:27:19;;;;;;;3.17;2.03;;;24.60;64.80;;;;;;4900988;29;20093;-82
2021/08/25 12:29:45;;;;;;;2.95;2.00;;;24.60;64.70;;;;;;4887381;29;20040;-82
2021/08/25 12:32:12;;;;;;;2.60;1.75;;;24.70;64.50;;;;;;4920158;29;20134;-82
2021/08/25 12:34:58;;;;;;;2.95;2.10;;;24.70;64.50;;;;;;4902885;29;20024;-84
2021/08/25 12:37:47;;;;;;;2.88;1.90;;;24.70;64.60;;;;;;4902562;29;20040;-83
2021/08/25 12:40:13;;;;;;;3.15;1.92;;;24.70;64.60;;;;;;4902519;29;20032;-83
2021/08/25 12:42:38;;;;;;;3.95;2.00;;;24.70;64.40;;;;;;4902856;29;20047;-83
2021/08/25 12:45:05;;;;;;;3.25;2.00;;;24.70;64.30;;;;;;4896205;29;20474;-83
2021/08/25 12:47:30;;;;;;;3.28;2.03;;;24.70;63.80;;;;;;4900542;29;20068;-83
2021/08/25 12:49:56;;;;;;;3.15;1.98;;;24.70;63.50;;;;;;4903021;29;20028;-83
2021/08/25 12:52:22;;;;;;;3.08;2.20;;;24.70;63.10;;;;;;4902610;29;20040;-85